Time;durP1;ratioP1;P1;durP2;ratioP2;P2;SDS_P1;SDS_P2;PMS_P1;PMS_P2;Temp;Humidity;BMP_temperature;BMP_pressure;BME280_temperature;BME280_humidity;BME280_pressure;Samples;Min_cycle;Max_cycle;Signal;HPM_P1;HPM_P2
2023/03/25 00:00:18;;;;;;;6.10;1.48;;;11.10;99.90;;;;;;4920456;29;20083;-72
2023/03/25 00:02:45;;;;;;;9.30;2.10;;;11.10;99.90;;;;;;4924722;29;20031;-72
2023/03/25 00:05:13;;;;;;;6.65;2.45;;;11.10;99.90;;;;;;4921156;29;20031;-71
2023/03/25 00:07:43;;;;;;;8.23;1.90;;;11.10;99.90;;;;;;4922882;29;20469;-70
2023/03/25 00:10:10;;;;;;;6.75;2.05;;;11.10;99.90;;;;;;4922237;29;20473;-70
2023/03/25 00:12:36;;;;;;;4.50;1.80;;;11.10;99.90;;;;;;4922826;29;20034;-71
2023/03/25 00:15:02;;;;;;;6.30;1.70;;;11.20;99.90;;;;;;4923410;29;20072;-71
2023/03/25 00:17:30;;;;;;;7.03;2.10;;;11.20;99.90;;;;;;4925525;29;20082;-70
2023/03/25 00:19:59;;;;;;;7.18;2.35;;;11.10;99.90;;;;;;4925267;29;20070;-70
2023/03/25 00:22:25;;;;;;;7.50;2.38;;;11.10;99.90;;;;;;4922605;29;20036;-71
2023/03/25 00:24:51;;;;;;;4.03;2.10;;;11.10;99.90;;;;;;4923745;29;20056;-70
2023/03/25 00:27:17;;;;;;;9.02;3.72;;;11.10;99.90;;;;;;4945394;28;20110;-70
2023/03/25 00:29:44;;;;;;;6.45;2.28;;;11.20;99.90;;;;;;4928428;29;20075;-71
2023/03/25 00:32:11;;;;;;;13.48;9.52;;;11.20;99.90;;;;;;4929046;29;20487;-70
2023/03/25 00:34:40;;;;;;;8.63;2.00;;;11.10;99.90;;;;;;4927925;29;20028;-71
2023/03/25 00:37:08;;;;;;;4.05;1.70;;;11.10;99.90;;;;;;4927982;29;20123;-71
2023/03/25 00:39:34;;;;;;;10.90;1.92;;;11.10;99.90;;;;;;4928145;29;20028;-70
2023/03/25 00:42:01;;;;;;;7.88;1.75;;;11.10;99.90;;;;;;4926028;29;20039;-70
2023/03/25 00:44:28;;;;;;;7.72;2.40;;;11.10;99.90;;;;;;4926702;29;20023;-70
2023/03/25 00:46:53;;;;;;;11.27;2.35;;;11.10;99.90;;;;;;4928759;29;20032;-70
2023/03/25 00:49:27;;;;;;;11.20;1.98;;;11.00;99.90;;;;;;4928672;29;20400;-70
2023/03/25 00:51:54;;;;;;;11.60;2.08;;;11.00;99.90;;;;;;4926011;29;20034;-72
2023/03/25 00:54:21;;;;;;;6.40;1.40;;;11.00;99.90;;;;;;4923301;29;20020;-70
2023/03/25 00:56:47;;;;;;;7.55;1.98;;;10.90;99.90;;;;;;4926905;29;20040;-71
2023/03/25 00:59:13;;;;;;;2.83;1.45;;;11.00;99.90;;;;;;4927095;29;20095;-70
2023/03/25 01:01:39;;;;;;;5.55;1.65;;;11.00;99.90;;;;;;4926286;29;20106;-70
2023/03/25 01:04:10;;;;;;;4.28;1.40;;;10.90;99.90;;;;;;4926282;29;20026;-70
2023/03/25 01:06:44;;;;;;;3.67;1.55;;;10.90;99.90;;;;;;4927482;29;20087;-70
2023/03/25 01:09:13;;;;;;;8.43;1.73;;;10.90;99.90;;;;;;4925940;29;20078;-70
2023/03/25 01:11:40;;;;;;;9.43;1.77;;;10.90;99.90;;;;;;4927711;29;20028;-71
2023/03/25 01:14:10;;;;;;;5.88;1.83;;;10.90;99.90;;;;;;4924511;29;20044;-70
2023/03/25 01:16:36;;;;;;;5.38;1.65;;;10.90;99.90;;;;;;4926742;29;20047;-70
2023/03/25 01:19:02;;;;;;;3.78;1.20;;;10.90;99.90;;;;;;4924825;29;20028;-71
2023/03/25 01:21:27;;;;;;;5.20;1.30;;;10.90;99.90;;;;;;4931806;29;20114;-70
2023/03/25 01:23:53;;;;;;;4.57;1.60;;;10.80;99.90;;;;;;4926112;29;20059;-71
2023/03/25 01:26:19;;;;;;;2.78;1.50;;;10.80;99.90;;;;;;4928338;29;20034;-70
2023/03/25 01:28:44;;;;;;;5.82;2.17;;;10.80;99.90;;;;;;4926189;29;20024;-70
2023/03/25 01:31:14;;;;;;;4.60;1.83;;;10.90;99.90;;;;;;4924382;29;20103;-70
2023/03/25 01:33:40;;;;;;;7.85;1.63;;;10.90;99.90;;;;;;4924579;29;20028;-70
2023/03/25 01:36:11;;;;;;;4.68;1.58;;;10.80;99.90;;;;;;4927296;29;20047;-70
2023/03/25 01:38:38;;;;;;;7.10;1.63;;;10.70;99.90;;;;;;4928085;29;20070;-70
2023/03/25 01:41:05;;;;;;;4.88;1.67;;;10.70;99.90;;;;;;4925803;29;20047;-70
2023/03/25 01:43:31;;;;;;;4.97;1.60;;;10.60;99.90;;;;;;4928763;29;20381;-71
2023/03/25 01:45:58;;;;;;;4.50;1.50;;;10.60;99.90;;;;;;4926917;29;20079;-70
2023/03/25 01:48:34;;;;;;;5.18;1.98;;;10.60;99.90;;;;;;4926047;29;20059;-70
2023/03/25 01:51:05;;;;;;;4.95;1.58;;;10.60;99.90;;;;;;4925893;29;20050;-70
2023/03/25 01:53:32;;;;;;;4.57;1.73;;;10.60;99.90;;;;;;4927329;29;20114;-70
2023/03/25 01:56:01;;;;;;;3.90;1.65;;;10.60;99.90;;;;;;4922063;29;20028;-71
2023/03/25 01:58:29;;;;;;;5.95;1.48;;;10.70;99.90;;;;;;4925855;29;20556;-71
2023/03/25 02:00:56;;;;;;;4.43;1.67;;;10.70;99.90;;;;;;4930750;29;20067;-70
2023/03/25 02:03:23;;;;;;;6.22;1.88;;;10.70;99.90;;;;;;4927269;29;20381;-73
2023/03/25 02:06:02;;;;;;;4.88;1.83;;;10.70;99.90;;;;;;4930424;29;20028;-70
2023/03/25 02:08:31;;;;;;;4.13;1.50;;;10.70;99.90;;;;;;4931696;29;20250;-71
2023/03/25 02:10:57;;;;;;;6.22;2.25;;;10.70;99.90;;;;;;4927923;29;20024;-70
2023/03/25 02:13:24;;;;;;;5.45;1.67;;;10.70;99.90;;;;;;4928753;28;20560;-69
2023/03/25 02:16:14;;;;;;;7.55;2.40;;;10.60;99.90;;;;;;4929823;29;20127;-68
2023/03/25 02:18:48;;;;;;;2.25;1.73;;;10.50;99.90;;;;;;4926273;29;20050;-69
2023/03/25 02:21:37;;;;;;;7.25;2.40;;;10.50;99.90;;;;;;4922720;29;20031;-72
2023/03/25 02:24:56;;;;;;;6.57;2.30;;;10.60;99.90;;;;;;4928614;29;20556;-70
2023/03/25 02:27:45;;;;;;;7.65;2.20;;;10.60;99.90;;;;;;4946421;29;20039;-70
2023/03/25 02:30:38;;;;;;;4.53;1.95;;;10.70;99.90;;;;;;4938960;29;20035;-70
2023/03/25 02:33:24;;;;;;;4.35;2.13;;;10.70;99.90;;;;;;4930115;29;20148;-69
2023/03/25 02:36:29;;;;;;;6.32;1.80;;;10.70;99.90;;;;;;4929338;29;20027;-70
2023/03/25 02:39:25;;;;;;;7.90;2.00;;;10.70;99.90;;;;;;4928576;29;20062;-68
2023/03/25 02:41:54;;;;;;;7.93;1.52;;;10.50;99.90;;;;;;4925579;29;20031;-69
2023/03/25 02:44:35;;;;;;;4.78;1.85;;;10.60;99.90;;;;;;4930759;29;20106;-69
2023/03/25 02:47:06;;;;;;;4.70;2.38;;;10.60;99.90;;;;;;4923610;29;20030;-69
2023/03/25 02:49:44;;;;;;;5.60;2.30;;;10.50;99.90;;;;;;4926604;29;20027;-70
2023/03/25 02:52:13;;;;;;;4.57;1.80;;;10.50;99.90;;;;;;4930492;29;20023;-70
2023/03/25 02:54:41;;;;;;;5.72;1.88;;;10.50;99.90;;;;;;4939838;28;20035;-71
2023/03/25 02:57:09;;;;;;;5.88;1.80;;;10.50;99.90;;;;;;4928247;29;20046;-70
2023/03/25 02:59:37;;;;;;;7.88;1.95;;;10.50;99.90;;;;;;4923598;29;20111;-71
2023/03/25 03:02:08;;;;;;;7.20;1.95;;;10.40;99.90;;;;;;4919786;29;20043;-71
2023/03/25 03:04:50;;;;;;;8.55;1.80;;;10.50;99.90;;;;;;4924292;29;20035;-70
2023/03/25 03:07:40;;;;;;;6.37;1.90;;;10.50;99.90;;;;;;4930318;29;20032;-70
2023/03/25 03:10:18;;;;;;;6.07;1.83;;;10.50;99.90;;;;;;4919912;29;20306;-70
2023/03/25 03:12:43;;;;;;;7.50;2.13;;;10.50;99.90;;;;;;4932024;29;20035;-71
2023/03/25 03:16:05;;;;;;;10.13;2.75;;;10.50;99.90;;;;;;4934129;29;20098;-70
2023/03/25 03:18:45;;;;;;;9.38;2.55;;;10.50;99.90;;;;;;4906196;29;20037;-70
2023/03/25 03:21:22;;;;;;;7.25;2.00;;;10.50;99.90;;;;;;4923045;29;20433;-71
2023/03/25 03:23:58;;;;;;;7.72;1.85;;;10.60;99.90;;;;;;4931122;29;20437;-70
2023/03/25 03:26:24;;;;;;;8.25;2.17;;;10.60;99.90;;;;;;4931579;29;20027;-70
2023/03/25 03:28:58;;;;;;;8.90;2.47;;;10.60;99.90;;;;;;4924820;29;20394;-70
2023/03/25 03:31:24;;;;;;;8.48;2.47;;;10.60;99.90;;;;;;4929540;29;20028;-70
2023/03/25 03:33:52;;;;;;;8.35;2.35;;;10.60;99.90;;;;;;4925148;29;20032;-70
2023/03/25 03:36:23;;;;;;;6.47;2.63;;;10.50;99.90;;;;;;4931582;29;20031;-71
2023/03/25 03:38:53;;;;;;;7.18;2.65;;;10.60;99.90;;;;;;4929872;29;20243;-70
2023/03/25 03:41:21;;;;;;;7.50;2.20;;;10.50;99.90;;;;;;4924883;29;20032;-70
2023/03/25 03:43:56;;;;;;;7.05;2.10;;;10.50;99.90;;;;;;4930962;29;20024;-70
2023/03/25 03:46:28;;;;;;;10.50;1.92;;;10.50;99.90;;;;;;4925667;29;20024;-70
2023/03/25 03:48:57;;;;;;;9.43;2.53;;;10.50;99.90;;;;;;4931005;29;20028;-70
2023/03/25 03:51:49;;;;;;;7.32;2.15;;;10.50;99.90;;;;;;4930056;29;20055;-70
2023/03/25 03:54:33;;;;;;;10.90;1.98;;;10.50;99.90;;;;;;4923482;29;20082;-70
2023/03/25 03:57:08;;;;;;;9.60;2.08;;;10.40;99.90;;;;;;4929469;29;20027;-70
2023/03/25 04:00:14;;;;;;;9.57;2.13;;;10.40;99.90;;;;;;4924031;29;20020;-70
2023/03/25 04:02:46;;;;;;;8.30;2.40;;;10.40;99.90;;;;;;4933489;29;20028;-70
2023/03/25 04:05:15;;;;;;;8.13;2.00;;;10.50;99.90;;;;;;4928355;29;20028;-70
2023/03/25 04:07:53;;;;;;;7.63;2.00;;;10.40;99.90;;;;;;4934921;29;20495;-70
2023/03/25 04:10:51;;;;;;;8.60;1.90;;;10.40;99.90;;;;;;4929429;29;20165;-70
2023/03/25 04:13:19;;;;;;;11.70;1.65;;;10.40;99.90;;;;;;4935905;29;20274;-70
2023/03/25 04:15:45;;;;;;;11.55;1.95;;;10.30;99.90;;;;;;4933257;29;20388;-69
2023/03/25 04:18:11;;;;;;;5.72;1.80;;;10.30;99.90;;;;;;4928619;29;20020;-68
2023/03/25 04:20:43;;;;;;;10.02;2.15;;;10.30;99.90;;;;;;4931511;29;20028;-69
2023/03/25 04:23:14;;;;;;;7.45;2.10;;;10.30;99.90;;;;;;4932799;29;20481;-70
2023/03/25 04:25:41;;;;;;;5.55;1.95;;;10.30;99.90;;;;;;4933513;29;20044;-69
2023/03/25 04:28:12;;;;;;;9.98;2.30;;;10.30;99.90;;;;;;4926164;29;20110;-70
2023/03/25 04:30:38;;;;;;;13.23;2.22;;;10.30;99.90;;;;;;4923911;29;20417;-70
2023/03/25 04:33:05;;;;;;;11.88;2.67;;;10.40;99.90;;;;;;4932648;29;20032;-69
2023/03/25 04:35:31;;;;;;;8.48;2.03;;;10.40;99.90;;;;;;4935381;29;20039;-69
2023/03/25 04:37:57;;;;;;;10.68;2.08;;;10.40;99.90;;;;;;4928933;29;20055;-69
2023/03/25 04:40:24;;;;;;;10.20;2.65;;;10.40;99.90;;;;;;4933083;29;20472;-70
2023/03/25 04:42:52;;;;;;;9.95;1.85;;;10.40;99.90;;;;;;4937015;29;20067;-70
2023/03/25 04:45:20;;;;;;;12.18;2.33;;;10.40;99.90;;;;;;4933081;29;20035;-70
2023/03/25 04:47:47;;;;;;;11.18;2.30;;;10.40;99.90;;;;;;4934107;29;20016;-70
2023/03/25 04:50:33;;;;;;;8.82;2.20;;;10.30;99.90;;;;;;4933666;29;20028;-70
2023/03/25 04:52:59;;;;;;;7.70;1.98;;;10.30;99.90;;;;;;4925951;29;20119;-70
2023/03/25 04:55:25;;;;;;;8.27;2.10;;;10.20;99.90;;;;;;4931073;29;20110;-70
2023/03/25 04:57:53;;;;;;;9.77;2.70;;;10.30;99.90;;;;;;4933587;29;20477;-70
2023/03/25 05:00:23;;;;;;;9.00;2.22;;;10.20;99.90;;;;;;4926751;29;20492;-71
2023/03/25 05:02:53;;;;;;;9.75;2.15;;;10.30;99.90;;;;;;4928771;29;20099;-70
2023/03/25 05:05:23;;;;;;;6.35;2.10;;;10.30;99.90;;;;;;4929527;29;20025;-70
2023/03/25 05:07:52;;;;;;;7.65;2.13;;;10.30;99.90;;;;;;4932502;29;20461;-70
2023/03/25 05:10:23;;;;;;;8.88;2.13;;;10.30;99.90;;;;;;4928771;29;20036;-71
2023/03/25 05:12:49;;;;;;;7.40;2.05;;;10.30;99.90;;;;;;4932863;29;20031;-70
2023/03/25 05:15:18;;;;;;;9.75;2.03;;;10.20;99.90;;;;;;4928242;29;20106;-71
2023/03/25 05:17:44;;;;;;;6.78;2.13;;;10.20;99.90;;;;;;4933266;29;20118;-70
2023/03/25 05:20:10;;;;;;;11.65;2.40;;;10.30;99.90;;;;;;4938529;29;20114;-70
2023/03/25 05:22:37;;;;;;;7.90;2.92;;;10.20;99.90;;;;;;4923625;29;20012;-69
2023/03/25 05:25:07;;;;;;;10.52;2.42;;;10.20;99.90;;;;;;4924329;29;20032;-71
2023/03/25 05:27:33;;;;;;;8.43;2.10;;;10.10;99.90;;;;;;4928604;29;20028;-72
2023/03/25 05:29:59;;;;;;;7.88;2.35;;;10.20;99.90;;;;;;4930732;29;20024;-71
2023/03/25 05:32:28;;;;;;;8.15;2.33;;;10.10;99.90;;;;;;4929969;29;20090;-71
2023/03/25 05:34:55;;;;;;;13.57;2.40;;;10.20;99.90;;;;;;4934233;29;20031;-71
2023/03/25 05:37:21;;;;;;;9.57;2.55;;;10.20;99.90;;;;;;4928679;29;20047;-71
2023/03/25 05:39:47;;;;;;;10.82;2.65;;;10.30;99.90;;;;;;4926427;29;20505;-71
2023/03/25 05:42:13;;;;;;;11.02;2.70;;;10.30;99.90;;;;;;4927379;29;20074;-71
2023/03/25 05:44:49;;;;;;;6.03;2.00;;;10.20;99.90;;;;;;4929287;29;20032;-71
2023/03/25 05:47:24;;;;;;;9.90;2.47;;;10.20;99.90;;;;;;4929963;29;20392;-70
2023/03/25 05:49:52;;;;;;;9.13;2.63;;;10.10;99.90;;;;;;4929449;29;20028;-71
2023/03/25 05:52:19;;;;;;;8.52;2.75;;;10.20;99.90;;;;;;4928182;29;20375;-70
2023/03/25 05:54:49;;;;;;;7.18;2.50;;;10.20;99.90;;;;;;4933486;29;20035;-70
2023/03/25 05:57:15;;;;;;;8.05;2.03;;;10.20;99.90;;;;;;4931927;29;20497;-71
2023/03/25 05:59:41;;;;;;;11.55;2.67;;;10.20;99.90;;;;;;4929590;29;20062;-71
2023/03/25 06:02:12;;;;;;;11.43;2.38;;;10.30;99.90;;;;;;4933946;28;20384;-70
2023/03/25 06:04:40;;;;;;;11.05;2.20;;;10.20;99.90;;;;;;4925877;29;20505;-70
2023/03/25 06:07:18;;;;;;;5.72;2.47;;;10.20;99.90;;;;;;4928051;29;20625;-71
2023/03/25 06:09:45;;;;;;;3.65;1.65;;;10.20;99.90;;;;;;4930848;29;20043;-71
2023/03/25 06:12:16;;;;;;;12.93;2.40;;;10.20;99.90;;;;;;4930591;29;20035;-70
2023/03/25 06:14:44;;;;;;;11.23;2.60;;;10.30;99.90;;;;;;4922249;29;20035;-71
2023/03/25 06:17:11;;;;;;;10.98;2.20;;;10.30;99.90;;;;;;4927236;29;20122;-71
2023/03/25 06:19:39;;;;;;;9.52;2.13;;;10.30;99.90;;;;;;4925368;29;20160;-70
2023/03/25 06:22:08;;;;;;;7.78;2.20;;;10.20;99.90;;;;;;4927166;29;20023;-70
2023/03/25 06:24:36;;;;;;;6.72;2.05;;;10.20;99.90;;;;;;4927781;29;20107;-70
2023/03/25 06:27:02;;;;;;;10.10;1.83;;;10.30;99.90;;;;;;4926670;29;20031;-71
2023/03/25 06:29:28;;;;;;;12.80;2.13;;;10.30;99.90;;;;;;4929965;29;20115;-71
2023/03/25 06:31:54;;;;;;;6.85;2.33;;;10.30;99.90;;;;;;4928255;29;20110;-71
2023/03/25 06:34:19;;;;;;;9.27;1.95;;;10.30;99.90;;;;;;4935005;29;20102;-71
2023/03/25 06:36:48;;;;;;;14.57;2.35;;;10.40;99.90;;;;;;4923808;29;20032;-71
2023/03/25 06:39:17;;;;;;;14.80;2.45;;;10.40;99.90;;;;;;4928103;29;20099;-71
2023/03/25 06:41:43;;;;;;;7.32;1.92;;;10.40;99.90;;;;;;4924422;29;20028;-71
2023/03/25 06:44:09;;;;;;;11.60;2.58;;;10.40;99.90;;;;;;4924904;29;20027;-71
2023/03/25 06:46:36;;;;;;;10.15;2.03;;;10.40;99.90;;;;;;4923962;29;20118;-71
2023/03/25 06:49:01;;;;;;;11.70;2.10;;;10.40;99.90;;;;;;4928815;29;20055;-71
2023/03/25 06:51:27;;;;;;;10.63;2.15;;;10.50;99.90;;;;;;4924366;29;20028;-71
2023/03/25 06:53:53;;;;;;;14.90;2.80;;;10.50;99.90;;;;;;4923427;28;20107;-72
2023/03/25 06:56:18;;;;;;;12.63;2.50;;;10.50;99.90;;;;;;4932853;29;20051;-72
2023/03/25 06:58:44;;;;;;;14.90;2.33;;;10.50;99.90;;;;;;4927549;29;20078;-71
2023/03/25 07:01:10;;;;;;;10.60;2.13;;;10.50;99.90;;;;;;4928027;29;20024;-72
2023/03/25 07:03:36;;;;;;;11.40;2.47;;;10.50;99.90;;;;;;4931836;29;20026;-73
2023/03/25 07:06:04;;;;;;;15.02;2.83;;;10.50;99.90;;;;;;4922524;29;20028;-72
2023/03/25 07:08:30;;;;;;;9.48;2.17;;;10.50;99.90;;;;;;4931307;29;20024;-73
2023/03/25 07:11:04;;;;;;;12.70;2.72;;;10.50;99.90;;;;;;4931084;29;20036;-72
2023/03/25 07:13:30;;;;;;;12.80;2.80;;;10.60;99.90;;;;;;4933468;29;20031;-72
2023/03/25 07:15:59;;;;;;;12.68;2.33;;;10.60;99.90;;;;;;4929081;29;20043;-72
2023/03/25 07:18:25;;;;;;;15.55;3.03;;;10.70;99.90;;;;;;4921594;29;20031;-72
2023/03/25 07:20:51;;;;;;;12.35;2.33;;;10.80;99.90;;;;;;4924820;29;20032;-72
2023/03/25 07:23:17;;;;;;;12.55;2.78;;;10.90;99.90;;;;;;4926356;29;20048;-72
2023/03/25 07:25:42;;;;;;;14.68;2.42;;;10.90;99.90;;;;;;4924654;29;20035;-72
2023/03/25 07:28:08;;;;;;;21.40;3.20;;;11.10;99.90;;;;;;4927325;29;20033;-72
2023/03/25 07:30:34;;;;;;;18.50;2.88;;;11.10;99.90;;;;;;4932964;29;20393;-72
2023/03/25 07:33:00;;;;;;;10.43;2.45;;;11.10;99.90;;;;;;4932305;29;20023;-73
2023/03/25 07:35:26;;;;;;;11.10;2.35;;;11.20;99.90;;;;;;4927992;29;20038;-72
2023/03/25 07:37:51;;;;;;;14.35;2.83;;;11.20;99.90;;;;;;4933512;29;20039;-72
2023/03/25 07:40:17;;;;;;;21.40;3.58;;;11.10;99.90;;;;;;4932120;29;20430;-72
2023/03/25 07:42:43;;;;;;;17.35;3.03;;;11.10;99.90;;;;;;4924836;29;20118;-72
2023/03/25 07:45:10;;;;;;;15.40;2.83;;;11.10;99.90;;;;;;4931066;29;20028;-72
2023/03/25 07:47:36;;;;;;;11.75;2.40;;;11.20;99.90;;;;;;4932218;29;20028;-72
2023/03/25 07:50:02;;;;;;;11.07;2.70;;;11.10;99.90;;;;;;4929345;29;20043;-72
2023/03/25 07:52:28;;;;;;;16.23;3.03;;;11.20;99.90;;;;;;4930409;29;20020;-72
2023/03/25 07:54:53;;;;;;;14.05;2.90;;;11.30;99.90;;;;;;4925547;29;20366;-72
2023/03/25 07:57:19;;;;;;;9.07;1.95;;;11.30;99.90;;;;;;4929368;29;20489;-72
2023/03/25 07:59:45;;;;;;;20.42;3.13;;;11.30;99.90;;;;;;4922714;29;20863;-72
2023/03/25 08:02:14;;;;;;;15.32;3.40;;;11.30;99.90;;;;;;4928313;29;20042;-72
2023/03/25 08:04:39;;;;;;;22.52;3.38;;;11.30;99.90;;;;;;4926965;29;20028;-72
2023/03/25 08:07:05;;;;;;;13.98;3.35;;;11.30;99.90;;;;;;4927584;29;20528;-72
2023/03/25 08:09:31;;;;;;;15.32;3.20;;;11.30;99.90;;;;;;4933697;29;20032;-72
2023/03/25 08:11:57;;;;;;;14.82;3.03;;;11.20;99.90;;;;;;4925183;29;20133;-72
2023/03/25 08:14:22;;;;;;;13.10;3.05;;;11.30;99.90;;;;;;4936380;29;20078;-72
2023/03/25 08:16:48;;;;;;;28.48;3.72;;;11.30;99.90;;;;;;4931917;29;20035;-72
2023/03/25 08:19:14;;;;;;;14.32;3.20;;;11.30;99.90;;;;;;4929630;29;20031;-71
2023/03/25 08:21:40;;;;;;;16.90;3.30;;;11.30;99.90;;;;;;4930883;29;20027;-72
2023/03/25 08:24:05;;;;;;;15.63;2.72;;;11.30;99.90;;;;;;4925340;29;20024;-73
2023/03/25 08:26:32;;;;;;;8.68;2.70;;;11.30;99.90;;;;;;4932441;29;20145;-72
2023/03/25 08:29:01;;;;;;;16.42;3.05;;;11.40;99.90;;;;;;4928831;29;20016;-72
2023/03/25 08:31:29;;;;;;;16.63;2.63;;;11.40;99.90;;;;;;4928676;29;20529;-73
2023/03/25 08:33:57;;;;;;;22.95;3.08;;;11.50;99.90;;;;;;4932263;29;20019;-72
2023/03/25 08:36:22;;;;;;;16.20;3.33;;;11.50;99.90;;;;;;4929226;29;20119;-72
2023/03/25 08:38:49;;;;;;;13.80;3.05;;;11.50;99.90;;;;;;4930256;29;20122;-72
2023/03/25 08:41:15;;;;;;;19.13;3.10;;;11.50;99.90;;;;;;4927165;29;20039;-73
2023/03/25 08:43:41;;;;;;;14.45;2.90;;;11.40;99.90;;;;;;4928846;29;20220;-72
2023/03/25 08:46:07;;;;;;;17.58;3.65;;;11.60;99.90;;;;;;4930018;29;20012;-73
2023/03/25 08:48:32;;;;;;;24.20;3.60;;;11.70;99.90;;;;;;4937213;29;20030;-72
2023/03/25 08:50:58;;;;;;;16.95;2.83;;;11.80;99.90;;;;;;4933825;29;20517;-72
2023/03/25 08:53:24;;;;;;;18.33;2.85;;;11.90;99.90;;;;;;4931958;29;20039;-72
2023/03/25 08:55:55;;;;;;;14.10;3.17;;;11.90;99.90;;;;;;4931028;29;20031;-72
2023/03/25 08:58:22;;;;;;;16.27;4.63;;;12.00;99.90;;;;;;4932607;29;20032;-73
2023/03/25 09:00:53;;;;;;;17.80;2.92;;;11.90;99.90;;;;;;4926825;29;20393;-74
2023/03/25 09:03:19;;;;;;;15.30;3.63;;;12.00;99.90;;;;;;4928671;29;20090;-73
2023/03/25 09:05:45;;;;;;;15.65;3.53;;;12.10;99.90;;;;;;4935866;29;20027;-72
2023/03/25 09:08:11;;;;;;;16.48;3.22;;;12.10;99.90;;;;;;4932494;29;20469;-74
2023/03/25 09:10:37;;;;;;;14.75;3.67;;;12.20;99.90;;;;;;4930661;29;20032;-73
2023/03/25 09:13:02;;;;;;;15.07;3.08;;;12.30;99.90;;;;;;4932247;29;20186;-73
2023/03/25 09:15:28;;;;;;;19.63;3.25;;;12.30;99.90;;;;;;4933021;29;20496;-73
2023/03/25 09:17:54;;;;;;;15.90;3.15;;;12.50;99.90;;;;;;4931991;28;20048;-72
2023/03/25 09:20:19;;;;;;;12.20;2.60;;;12.60;99.90;;;;;;4926824;29;20035;-72
2023/03/25 09:22:45;;;;;;;12.68;3.47;;;12.60;99.90;;;;;;4933914;29;20039;-72
2023/03/25 09:25:12;;;;;;;17.38;3.42;;;12.80;99.90;;;;;;4934184;29;20023;-74
2023/03/25 09:27:38;;;;;;;8.90;2.25;;;12.90;99.90;;;;;;4933643;29;20111;-73
2023/03/25 09:30:05;;;;;;;9.40;2.47;;;12.90;99.90;;;;;;4931010;29;20511;-73
2023/03/25 09:32:31;;;;;;;11.40;2.70;;;12.70;99.90;;;;;;4931977;29;20434;-72
2023/03/25 09:34:57;;;;;;;14.25;2.55;;;12.80;99.90;;;;;;4935047;29;20039;-73
2023/03/25 09:37:22;;;;;;;12.25;2.40;;;12.90;99.90;;;;;;4932063;29;20036;-73
2023/03/25 09:39:48;;;;;;;11.23;2.28;;;12.90;99.90;;;;;;4940948;28;20853;-73
2023/03/25 09:42:59;;;;;;;9.77;2.65;;;12.80;99.90;;;;;;4933365;29;20032;-73
2023/03/25 09:45:35;;;;;;;13.77;3.40;;;12.80;99.90;;;;;;4934607;29;20087;-73
2023/03/25 09:48:03;;;;;;;15.73;3.00;;;12.60;99.90;;;;;;4935479;29;20035;-72
2023/03/25 09:50:32;;;;;;;15.55;3.55;;;12.30;99.90;;;;;;4936520;29;20090;-70
2023/03/25 09:53:23;;;;;;;17.23;3.80;;;12.30;99.90;;;;;;4930673;29;20027;-71
2023/03/25 09:55:50;;;;;;;16.05;3.17;;;12.30;99.90;;;;;;4925695;29;20584;-73
2023/03/25 09:58:40;;;;;;;19.20;3.03;;;12.20;99.90;;;;;;4922169;29;20016;-74
2023/03/25 10:01:06;;;;;;;18.73;3.40;;;12.30;99.90;;;;;;4934131;29;20030;-73
2023/03/25 10:03:53;;;;;;;14.93;2.95;;;12.40;99.90;;;;;;4929766;29;20028;-73
2023/03/25 10:06:20;;;;;;;14.07;3.10;;;12.40;99.90;;;;;;4927089;29;20047;-73
2023/03/25 10:09:12;;;;;;;23.00;3.95;;;12.20;99.90;;;;;;4927020;29;20032;-72
2023/03/25 10:11:56;;;;;;;15.57;3.08;;;12.20;99.90;;;;;;4925126;29;20047;-73
2023/03/25 10:14:52;;;;;;;20.63;3.60;;;12.10;99.90;;;;;;4927777;29;20028;-72
2023/03/25 10:17:41;;;;;;;13.35;3.95;;;12.20;99.90;;;;;;4932272;29;20027;-73
2023/03/25 10:20:35;;;;;;;20.02;3.95;;;12.20;99.90;;;;;;4935134;29;20039;-72
2023/03/25 10:23:35;;;;;;;25.98;3.97;;;12.60;99.90;;;;;;4928028;29;20132;-73
2023/03/25 10:26:08;;;;;;;20.42;3.75;;;12.90;99.90;;;;;;4947060;28;20031;-74
2023/03/25 10:28:38;;;;;;;16.98;3.30;;;13.30;99.90;;;;;;4934743;29;20369;-73
2023/03/25 10:31:08;;;;;;;13.60;2.85;;;13.60;99.90;;;;;;4924531;29;20477;-73
2023/03/25 10:33:40;;;;;;;17.52;3.80;;;13.60;99.90;;;;;;4932573;29;20015;-72
2023/03/25 10:36:13;;;;;;;19.70;2.67;;;13.60;99.90;;;;;;4930018;29;20515;-73
2023/03/25 10:38:40;;;;;;;17.23;3.65;;;13.70;99.90;;;;;;4934093;29;20035;-73
2023/03/25 10:41:38;;;;;;;18.25;3.10;;;13.90;99.90;;;;;;4933376;29;20556;-72
2023/03/25 10:44:08;;;;;;;15.60;3.47;;;13.90;99.90;;;;;;4931045;29;20139;-73
2023/03/25 10:46:49;;;;;;;18.75;3.55;;;13.80;99.90;;;;;;4933869;29;20028;-72
2023/03/25 10:49:20;;;;;;;24.27;4.82;;;13.90;99.90;;;;;;4930124;29;20528;-73
2023/03/25 10:51:48;;;;;;;17.15;3.42;;;14.10;99.90;;;;;;4930228;29;20027;-73
2023/03/25 10:54:16;;;;;;;14.23;2.80;;;13.80;99.90;;;;;;4929173;29;20032;-72
2023/03/25 10:56:46;;;;;;;11.95;2.30;;;13.90;99.90;;;;;;4937124;29;20035;-73
2023/03/25 10:59:21;;;;;;;8.77;1.90;;;14.10;99.90;;;;;;4930134;29;20038;-72
2023/03/25 11:01:47;;;;;;;11.57;1.98;;;14.20;99.90;;;;;;4931579;29;20440;-72
2023/03/25 11:04:17;;;;;;;7.78;1.70;;;14.10;99.90;;;;;;4935056;29;20130;-73
2023/03/25 11:06:54;;;;;;;10.88;2.75;;;14.20;99.90;;;;;;4929509;29;20089;-72
2023/03/25 11:09:31;;;;;;;12.35;2.10;;;14.10;99.90;;;;;;4927725;28;20426;-72
2023/03/25 11:12:03;;;;;;;11.07;2.63;;;14.10;99.90;;;;;;4928338;29;20544;-72
2023/03/25 11:14:29;;;;;;;13.90;2.65;;;14.30;99.90;;;;;;4930372;29;20389;-72
2023/03/25 11:17:03;;;;;;;30.05;4.93;;;14.40;99.90;;;;;;4926639;29;20047;-72
2023/03/25 11:19:47;;;;;;;8.82;2.28;;;14.50;99.90;;;;;;4928224;29;20359;-72
2023/03/25 11:22:18;;;;;;;12.20;2.67;;;14.60;99.90;;;;;;4927957;29;20050;-72
2023/03/25 11:24:47;;;;;;;14.80;2.55;;;14.60;99.90;;;;;;4931385;29;20023;-73
2023/03/25 11:27:21;;;;;;;11.98;2.88;;;14.60;99.90;;;;;;4930882;29;20020;-73
2023/03/25 11:30:15;;;;;;;14.43;2.80;;;14.60;99.90;;;;;;4929546;29;20031;-72
2023/03/25 11:32:41;;;;;;;9.15;2.63;;;14.60;99.90;;;;;;4932282;29;20043;-73
2023/03/25 11:35:16;;;;;;;13.20;2.72;;;14.40;99.90;;;;;;4907969;29;20420;-73
2023/03/25 11:37:47;;;;;;;11.13;2.67;;;14.10;99.90;;;;;;4919014;29;20047;-71
2023/03/25 11:40:16;;;;;;;26.58;5.15;;;14.00;99.90;;;;;;4916810;29;20032;-73
2023/03/25 11:42:50;;;;;;;28.33;4.00;;;13.80;99.90;;;;;;4918840;29;20489;-72
2023/03/25 11:45:31;;;;;;;39.38;4.97;;;13.70;99.90;;;;;;4917146;29;20032;-74
2023/03/25 11:48:01;;;;;;;14.75;3.40;;;13.70;99.90;;;;;;4926469;29;20035;-74
2023/03/25 11:50:29;;;;;;;29.27;4.70;;;13.50;99.90;;;;;;4932951;29;20031;-73
2023/03/25 11:53:00;;;;;;;16.00;3.20;;;13.30;99.90;;;;;;4933663;29;20083;-72
2023/03/25 11:55:34;;;;;;;13.05;3.38;;;13.20;99.90;;;;;;4932933;29;20034;-73
2023/03/25 11:58:01;;;;;;;10.23;3.17;;;13.10;99.90;;;;;;4926505;29;20508;-71
2023/03/25 12:00:37;;;;;;;13.63;2.88;;;13.00;99.90;;;;;;4933036;29;20036;-70
2023/03/25 12:03:25;;;;;;;19.50;3.25;;;12.90;99.90;;;;;;4935684;29;20083;-72
2023/03/25 12:06:10;;;;;;;13.40;3.10;;;12.60;99.90;;;;;;4931078;29;20024;-71
2023/03/25 12:08:49;;;;;;;15.88;2.38;;;12.50;99.90;;;;;;4934705;29;20035;-71
2023/03/25 12:11:46;;;;;;;16.00;2.83;;;12.40;99.90;;;;;;4927916;29;20035;-72
2023/03/25 12:14:23;;;;;;;16.13;3.00;;;12.30;99.90;;;;;;4925906;29;20429;-72
2023/03/25 12:17:04;;;;;;;13.15;2.28;;;12.40;99.90;;;;;;4929109;29;20127;-73
2023/03/25 12:19:56;;;;;;;9.30;2.17;;;12.50;99.90;;;;;;4936208;29;20078;-73
2023/03/25 12:22:41;;;;;;;12.40;2.70;;;12.70;99.90;;;;;;4933806;29;20480;-73
2023/03/25 12:25:14;;;;;;;12.52;2.17;;;12.90;99.90;;;;;;4928066;29;20057;-73
2023/03/25 12:28:12;;;;;;;9.25;2.80;;;13.20;99.90;;;;;;4936923;29;20103;-73
2023/03/25 12:30:52;;;;;;;9.38;1.85;;;13.50;99.90;;;;;;4921063;29;20489;-72
2023/03/25 12:33:47;;;;;;;6.97;1.98;;;13.40;99.90;;;;;;4934438;29;20026;-73
2023/03/25 12:36:30;;;;;;;9.73;1.63;;;13.40;99.90;;;;;;4932329;29;20067;-73
2023/03/25 12:39:22;;;;;;;8.57;1.48;;;13.80;99.90;;;;;;4926331;29;20381;-72
2023/03/25 12:42:06;;;;;;;6.25;1.80;;;14.10;99.90;;;;;;4929878;29;20468;-73
2023/03/25 12:44:53;;;;;;;8.00;2.03;;;14.00;99.90;;;;;;4931048;29;20024;-72
2023/03/25 12:47:40;;;;;;;9.20;1.67;;;14.20;99.90;;;;;;4925484;29;20039;-72
2023/03/25 12:50:31;;;;;;;6.78;1.90;;;14.40;99.90;;;;;;4932543;29;20020;-73
2023/03/25 12:53:37;;;;;;;11.80;2.60;;;14.50;99.90;;;;;;4936615;29;20019;-78
2023/03/25 12:56:02;;;;;;;11.75;2.53;;;14.60;99.90;;;;;;4933600;29;20098;-73
2023/03/25 12:58:37;;;;;;;12.05;1.90;;;14.90;99.90;;;;;;4927506;29;20044;-72
2023/03/25 13:01:39;;;;;;;9.80;2.10;;;14.80;99.90;;;;;;4927784;29;20424;-73
2023/03/25 13:04:21;;;;;;;7.38;1.98;;;14.70;99.90;;;;;;4924040;29;20028;-73